Time;durP1;ratioP1;P1;durP2;ratioP2;P2;SDS_P1;SDS_P2;PMS_P1;PMS_P2;Temp;Humidity;BMP_temperature;BMP_pressure;BME280_temperature;BME280_humidity;BME280_pressure;Samples;Min_cycle;Max_cycle;Signal;HPM_P1;HPM_P2
2023/08/31 00:01:06;;;;;;;6.30;4.33;;;;;;;13.43;100.00;99443.34;5013365;28;20241;-65
2023/08/31 00:03:32;;;;;;;4.50;4.03;;;;;;;13.32;100.00;99449.28;5022136;28;20224;-66
2023/08/31 00:05:57;;;;;;;4.40;4.00;;;;;;;13.31;100.00;99445.06;5014645;28;20174;-66
2023/08/31 00:08:22;;;;;;;13.07;6.13;;;;;;;13.21;100.00;99444.97;5015078;28;20548;-66
2023/08/31 00:10:58;;;;;;;5.40;4.50;;;;;;;13.15;100.00;99446.25;5017166;28;20691;-66
2023/08/31 00:13:24;;;;;;;4.50;3.83;;;;;;;13.19;100.00;99444.25;5035677;28;20190;-66
2023/08/31 00:15:49;;;;;;;3.90;3.60;;;;;;;13.15;100.00;99448.03;5033031;28;20181;-65
2023/08/31 00:18:16;;;;;;;5.97;4.10;;;;;;;13.06;100.00;99452.94;5034534;28;20178;-65
2023/08/31 00:20:41;;;;;;;5.57;4.20;;;;;;;13.18;100.00;99450.34;5023980;28;20233;-65
2023/08/31 00:23:07;;;;;;;5.53;3.87;;;;;;;13.13;100.00;99448.13;5024907;28;20202;-65
2023/08/31 00:25:32;;;;;;;4.47;3.97;;;;;;;13.04;100.00;99461.72;5012937;28;20189;-65
2023/08/31 00:28:04;;;;;;;3.93;3.53;;;;;;;13.02;100.00;99461.00;5014355;28;20175;-65
2023/08/31 00:30:30;;;;;;;7.97;3.63;;;;;;;12.98;100.00;99455.25;5008406;28;20288;-65
2023/08/31 00:32:55;;;;;;;5.13;3.60;;;;;;;12.82;100.00;99462.50;5025481;28;20198;-65
2023/08/31 00:35:20;;;;;;;5.37;3.70;;;;;;;12.84;100.00;99453.72;5014329;28;20187;-67
2023/08/31 00:37:45;;;;;;;4.67;4.07;;;;;;;12.74;100.00;99463.09;5013500;28;20183;-66
2023/08/31 00:40:13;;;;;;;8.07;3.83;;;;;;;12.82;100.00;99465.09;5006732;28;20175;-66
2023/08/31 00:42:39;;;;;;;7.20;4.60;;;;;;;12.57;100.00;99467.69;5048129;28;20174;-65
2023/08/31 00:45:05;;;;;;;6.00;3.83;;;;;;;12.48;100.00;99467.53;5033679;28;20189;-66
2023/08/31 00:47:31;;;;;;;4.33;3.87;;;;;;;12.57;100.00;99469.47;5034135;28;20178;-65
2023/08/31 00:49:56;;;;;;;4.60;3.60;;;;;;;12.55;100.00;99466.16;5034027;28;20182;-66
2023/08/31 00:52:22;;;;;;;6.67;3.57;;;;;;;12.43;100.00;99475.63;5037478;28;20713;-66
2023/08/31 00:54:51;;;;;;;6.00;4.10;;;;;;;12.39;100.00;99464.72;5033453;28;20201;-65
2023/08/31 00:57:16;;;;;;;4.43;3.93;;;;;;;12.48;100.00;99470.97;5033826;28;20637;-67
2023/08/31 00:59:41;;;;;;;7.37;4.43;;;;;;;12.52;100.00;99469.00;5034153;28;20232;-67
2023/08/31 01:02:22;;;;;;;5.80;4.33;;;;;;;12.48;100.00;99463.22;5021508;28;20225;-68
2023/08/31 01:05:06;;;;;;;4.60;4.07;;;;;;;12.27;100.00;99465.59;5013695;28;20198;-67
2023/08/31 01:07:41;;;;;;;6.67;4.50;;;;;;;12.26;100.00;99466.53;5012060;28;20772;-65
2023/08/31 01:10:29;;;;;;;6.57;4.30;;;;;;;12.29;100.00;99471.44;5005089;28;20641;-66
2023/08/31 01:13:13;;;;;;;6.13;4.10;;;;;;;12.14;100.00;99472.56;5032406;28;20198;-67
2023/08/31 01:15:41;;;;;;;5.47;4.03;;;;;;;12.12;100.00;99470.09;5032771;28;20178;-68
2023/08/31 01:18:10;;;;;;;6.20;4.20;;;;;;;12.11;100.00;99474.41;5033717;28;20178;-65
2023/08/31 01:20:44;;;;;;;7.03;4.60;;;;;;;12.14;100.00;99469.97;5036469;28;20297;-65
2023/08/31 01:23:13;;;;;;;5.80;4.13;;;;;;;12.13;100.00;99471.75;5023471;28;20186;-67
2023/08/31 01:25:42;;;;;;;8.10;4.80;;;;;;;12.12;100.00;99483.00;5011829;28;20206;-65
2023/08/31 01:28:08;;;;;;;4.97;4.37;;;;;;;12.10;100.00;99484.84;5013373;28;20186;-65
2023/08/31 01:30:34;;;;;;;6.27;4.83;;;;;;;12.05;100.00;99490.31;5011717;28;20233;-66
2023/08/31 01:32:59;;;;;;;7.67;5.13;;;;;;;11.94;100.00;99483.34;5031895;28;20695;-66
2023/08/31 01:35:26;;;;;;;7.30;5.00;;;;;;;11.84;100.00;99487.47;5033000;28;20190;-66
2023/08/31 01:38:01;;;;;;;5.20;4.60;;;;;;;11.91;100.00;99483.53;5014417;28;20538;-66
2023/08/31 01:40:34;;;;;;;7.23;4.97;;;;;;;11.84;100.00;99486.66;5026408;28;20830;-66
2023/08/31 01:43:05;;;;;;;6.57;4.87;;;;;;;11.83;100.00;99480.66;5044083;28;20182;-66
2023/08/31 01:45:31;;;;;;;5.73;4.57;;;;;;;11.83;100.00;99479.84;5033042;28;20220;-66
2023/08/31 01:47:57;;;;;;;6.40;5.20;;;;;;;11.86;100.00;99482.22;5031412;28;20269;-66
2023/08/31 01:50:22;;;;;;;6.17;4.80;;;;;;;11.86;100.00;99477.06;5022546;28;20671;-65
2023/08/31 01:52:48;;;;;;;10.77;6.83;;;;;;;11.92;100.00;99474.88;5025557;28;20260;-65
2023/08/31 01:55:16;;;;;;;6.47;5.87;;;;;;;11.95;100.00;99471.25;5012630;28;20659;-66
2023/08/31 01:57:41;;;;;;;7.60;5.20;;;;;;;12.02;100.00;99471.66;5011037;28;20534;-66
2023/08/31 02:00:09;;;;;;;7.40;5.00;;;;;;;12.05;100.00;99484.34;5003881;28;20261;-66
2023/08/31 02:02:35;;;;;;;9.63;5.10;;;;;;;12.17;100.00;99492.94;5047144;28;20179;-67
2023/08/31 02:05:01;;;;;;;8.17;5.67;;;;;;;12.23;100.00;99495.09;5032481;28;20221;-67
2023/08/31 02:07:27;;;;;;;4.87;4.37;;;;;;;12.22;100.00;99490.91;5032474;28;20171;-67
2023/08/31 02:09:53;;;;;;;6.33;4.77;;;;;;;12.31;100.00;99492.81;5031080;28;20676;-67
2023/08/31 02:12:18;;;;;;;6.10;4.83;;;;;;;12.36;100.00;99493.28;4990573;28;20217;-67
2023/08/31 02:14:43;;;;;;;6.17;4.87;;;;;;;12.38;100.00;99495.78;5011872;28;20174;-67
2023/08/31 02:17:08;;;;;;;5.67;4.70;;;;;;;12.37;100.00;99491.56;5012563;28;20190;-67
2023/08/31 02:19:34;;;;;;;5.20;4.73;;;;;;;12.24;100.00;99500.16;5012576;28;20182;-67
2023/08/31 02:21:59;;;;;;;7.67;4.87;;;;;;;12.22;100.00;99508.94;5003773;28;20416;-67
2023/08/31 02:24:24;;;;;;;7.83;4.80;;;;;;;12.23;100.00;99505.41;5012537;28;20186;-68
2023/08/31 02:26:50;;;;;;;5.80;5.20;;;;;;;12.26;100.00;99500.88;5012699;28;20638;-67
2023/08/31 02:29:15;;;;;;;6.57;5.60;;;;;;;12.25;100.00;99508.72;5012754;28;20399;-68
2023/08/31 02:31:41;;;;;;;7.37;5.13;;;;;;;12.27;100.00;99510.25;5014541;28;20635;-67
2023/08/31 02:34:07;;;;;;;5.50;4.80;;;;;;;12.36;100.00;99515.69;5014997;28;20190;-68
2023/08/31 02:36:32;;;;;;;6.53;5.53;;;;;;;12.33;100.00;99509.00;5027437;28;20653;-66
2023/08/31 02:38:57;;;;;;;9.40;4.77;;;;;;;12.25;100.00;99504.41;5012599;28;20221;-66
2023/08/31 02:41:22;;;;;;;6.63;4.80;;;;;;;12.07;100.00;99506.50;5023490;28;20263;-66
2023/08/31 02:43:51;;;;;;;8.87;5.60;;;;;;;12.10;100.00;99508.03;5036929;28;20213;-66
2023/08/31 02:46:17;;;;;;;7.07;5.63;;;;;;;12.10;100.00;99510.63;5031394;28;20677;-66
2023/08/31 02:48:43;;;;;;;7.33;6.17;;;;;;;12.07;100.00;99519.41;5032026;28;20185;-66
2023/08/31 02:51:08;;;;;;;7.23;5.47;;;;;;;12.09;100.00;99512.38;5021207;28;20696;-66
2023/08/31 02:53:34;;;;;;;6.50;5.70;;;;;;;12.05;100.00;99510.13;5010499;28;20185;-66
2023/08/31 02:55:59;;;;;;;8.63;5.43;;;;;;;12.00;100.00;99509.63;5011268;28;20171;-66
2023/08/31 02:58:24;;;;;;;6.80;5.40;;;;;;;11.92;100.00;99510.94;5012126;28;20225;-67
2023/08/31 03:00:50;;;;;;;7.03;5.60;;;;;;;11.84;100.00;99509.84;5014612;28;20241;-67
2023/08/31 03:03:16;;;;;;;6.40;5.07;;;;;;;11.82;100.00;99515.09;5017161;28;20429;-66
2023/08/31 03:05:41;;;;;;;7.17;5.17;;;;;;;11.85;100.00;99508.91;5031060;28;20227;-67
2023/08/31 03:08:07;;;;;;;6.10;5.57;;;;;;;11.70;100.00;99503.88;5031300;28;20190;-66
2023/08/31 03:10:32;;;;;;;8.93;5.77;;;;;;;11.67;100.00;99508.41;5019309;28;20229;-67
2023/08/31 03:12:57;;;;;;;5.93;4.70;;;;;;;11.64;100.00;99506.88;5010592;28;20239;-67
2023/08/31 03:15:23;;;;;;;7.03;5.40;;;;;;;11.62;100.00;99516.44;5011575;28;20217;-66
2023/08/31 03:17:48;;;;;;;6.03;5.33;;;;;;;11.66;100.00;99515.34;5011573;28;20325;-67
2023/08/31 03:20:13;;;;;;;7.70;6.03;;;;;;;11.63;100.00;99518.94;5005142;28;20186;-67
2023/08/31 03:22:39;;;;;;;7.60;5.33;;;;;;;11.59;100.00;99517.50;5044832;28;20300;-67
2023/08/31 03:25:04;;;;;;;15.70;5.97;;;;;;;11.68;100.00;99517.81;5030238;28;20521;-66
2023/08/31 03:27:29;;;;;;;6.40;5.40;;;;;;;11.67;100.00;99518.72;5034333;28;20178;-66
2023/08/31 03:29:55;;;;;;;6.00;5.43;;;;;;;11.65;100.00;99531.72;5035519;28;20174;-66
2023/08/31 03:32:20;;;;;;;7.97;5.90;;;;;;;11.67;100.00;99526.44;4985770;28;20310;-67
2023/08/31 03:34:45;;;;;;;9.23;5.23;;;;;;;11.69;100.00;99522.84;5014084;28;20642;-67
2023/08/31 03:37:11;;;;;;;6.13;5.30;;;;;;;11.72;100.00;99526.97;5015223;28;20183;-66
2023/08/31 03:39:37;;;;;;;8.13;5.87;;;;;;;11.69;100.00;99529.75;5004094;28;20190;-66
2023/08/31 03:42:02;;;;;;;8.13;6.00;;;;;;;11.66;100.00;99533.38;5023413;28;20345;-66
2023/08/31 03:44:27;;;;;;;9.40;6.27;;;;;;;11.60;100.00;99526.06;5033705;28;20316;-66
2023/08/31 03:46:53;;;;;;;8.17;6.33;;;;;;;11.47;100.00;99536.34;5035031;28;20257;-67
2023/08/31 03:49:18;;;;;;;6.47;5.40;;;;;;;11.35;100.00;99532.03;5034166;28;20182;-66
2023/08/31 03:51:43;;;;;;;7.00;6.30;;;;;;;11.26;100.00;99536.03;5037757;28;20594;-66
2023/08/31 03:54:09;;;;;;;7.47;6.00;;;;;;;11.18;100.00;99538.31;5033583;28;20182;-67
2023/08/31 03:56:34;;;;;;;7.37;5.93;;;;;;;11.26;100.00;99536.03;5035210;28;20251;-66
2023/08/31 03:59:03;;;;;;;8.10;6.43;;;;;;;11.25;100.00;99539.53;5034964;28;20205;-65
2023/08/31 04:01:28;;;;;;;8.63;5.87;;;;;;;11.32;100.00;99538.19;5024025;28;20300;-66
2023/08/31 04:03:54;;;;;;;7.97;7.00;;;;;;;11.32;100.00;99542.53;5019161;28;20642;-66
2023/08/31 04:06:19;;;;;;;7.33;6.53;;;;;;;11.22;100.00;99543.13;5014937;28;20189;-66
2023/08/31 04:08:44;;;;;;;8.37;6.80;;;;;;;11.28;100.00;99553.03;5013762;28;20192;-66
2023/08/31 04:11:09;;;;;;;7.43;6.20;;;;;;;11.26;100.00;99556.63;5015783;28;20222;-67
2023/08/31 04:13:35;;;;;;;7.30;6.60;;;;;;;11.20;100.00;99563.03;5022771;28;20257;-67
2023/08/31 04:16:00;;;;;;;9.77;7.60;;;;;;;11.14;100.00;99569.38;5034521;28;20169;-66
2023/08/31 04:18:25;;;;;;;8.67;6.67;;;;;;;11.16;100.00;99577.00;5034751;28;20180;-66
2023/08/31 04:20:52;;;;;;;8.00;7.10;;;;;;;11.11;100.00;99576.47;5013067;28;20658;-66
2023/08/31 04:23:19;;;;;;;9.80;7.07;;;;;;;11.03;100.00;99577.00;4994166;28;20179;-67
2023/08/31 04:25:45;;;;;;;8.07;7.27;;;;;;;11.05;100.00;99577.72;5014314;28;20239;-67
2023/08/31 04:28:10;;;;;;;10.87;7.40;;;;;;;11.08;100.00;99587.00;5014526;28;20536;-66
2023/08/31 04:30:35;;;;;;;8.83;7.50;;;;;;;11.00;100.00;99584.09;5009122;28;20229;-66
2023/08/31 04:33:01;;;;;;;10.63;7.17;;;;;;;10.81;100.00;99580.94;5025592;28;20214;-68
2023/08/31 04:35:26;;;;;;;7.30;6.57;;;;;;;10.95;100.00;99584.38;5014224;28;20320;-67
2023/08/31 04:37:52;;;;;;;7.90;6.20;;;;;;;10.93;100.00;99581.91;5013539;28;20186;-66
2023/08/31 04:40:17;;;;;;;11.73;6.17;;;;;;;10.94;100.00;99586.13;5008602;28;20637;-67
2023/08/31 04:42:43;;;;;;;10.30;6.30;;;;;;;10.94;100.00;99580.13;5032172;28;20246;-65
2023/08/31 04:45:08;;;;;;;10.80;6.40;;;;;;;10.94;100.00;99577.56;5033799;28;20193;-66
2023/08/31 04:47:34;;;;;;;9.37;6.57;;;;;;;10.88;100.00;99585.69;5034376;28;20212;-67
2023/08/31 04:49:59;;;;;;;8.03;5.70;;;;;;;10.94;100.00;99595.59;5032508;28;20257;-66
2023/08/31 04:52:24;;;;;;;8.53;5.50;;;;;;;10.92;100.00;99592.31;5003375;28;20249;-66
2023/08/31 04:54:50;;;;;;;6.17;5.53;;;;;;;11.00;100.00;99591.81;5013598;28;20253;-67
2023/08/31 04:57:15;;;;;;;8.63;5.27;;;;;;;11.06;100.00;99588.84;5014133;28;20202;-66
2023/08/31 04:59:40;;;;;;;11.90;5.50;;;;;;;11.07;100.00;99590.50;5013801;28;20604;-65
2023/08/31 05:02:06;;;;;;;7.23;5.77;;;;;;;11.07;100.00;99601.59;5005520;28;20234;-67
2023/08/31 05:04:31;;;;;;;8.50;5.50;;;;;;;11.19;100.00;99604.28;5011952;28;20185;-66
2023/08/31 05:06:56;;;;;;;6.47;5.80;;;;;;;11.25;100.00;99607.31;5014007;28;20208;-67
2023/08/31 05:09:26;;;;;;;8.03;6.00;;;;;;;11.24;100.00;99615.16;5013858;28;20194;-66
2023/08/31 05:11:52;;;;;;;6.70;4.80;;;;;;;11.24;100.00;99613.38;5019317;28;20644;-66
2023/08/31 05:14:17;;;;;;;8.30;5.93;;;;;;;11.32;100.00;99620.59;5022403;28;20235;-67
2023/08/31 05:16:42;;;;;;;5.93;5.33;;;;;;;11.43;100.00;99625.06;5033961;28;20194;-67
2023/08/31 05:19:08;;;;;;;7.50;5.20;;;;;;;11.52;100.00;99637.31;5033393;28;20272;-64
2023/08/31 05:21:33;;;;;;;7.73;5.00;;;;;;;11.56;100.00;99640.50;5018440;28;20349;-65
2023/08/31 05:23:58;;;;;;;5.33;4.70;;;;;;;11.65;100.00;99639.06;5003131;28;20182;-65
2023/08/31 05:26:23;;;;;;;5.60;4.53;;;;;;;11.53;100.00;99640.72;5013400;28;20603;-66
2023/08/31 05:28:49;;;;;;;7.23;4.87;;;;;;;11.71;100.00;99641.25;5013492;28;20179;-65
2023/08/31 05:31:15;;;;;;;7.47;4.90;;;;;;;11.72;100.00;99648.91;5022790;28;20588;-65
2023/08/31 05:33:40;;;;;;;4.97;4.03;;;;;;;11.92;100.00;99649.28;5037014;28;20170;-64
2023/08/31 05:36:06;;;;;;;7.53;4.13;;;;;;;12.00;100.00;99646.25;5032519;28;20182;-64
2023/08/31 05:38:31;;;;;;;6.13;4.17;;;;;;;12.26;100.00;99647.03;5030440;28;20629;-64
2023/08/31 05:41:09;;;;;;;4.70;3.77;;;;;;;12.11;100.00;99643.75;5022571;28;20686;-64
2023/08/31 05:43:36;;;;;;;5.77;4.00;;;;;;;12.39;100.00;99644.44;5012204;28;20536;-64
2023/08/31 05:46:01;;;;;;;8.17;3.90;;;;;;;12.53;100.00;99646.06;5012297;28;20566;-64
2023/08/31 05:48:26;;;;;;;9.03;4.10;;;;;;;12.58;100.00;99649.94;5013323;28;20236;-64
2023/08/31 05:50:51;;;;;;;5.30;3.77;;;;;;;12.67;100.00;99645.91;5008750;28;20272;-64
2023/08/31 05:53:17;;;;;;;6.37;4.13;;;;;;;12.83;100.00;99655.16;5020412;28;20197;-64
2023/08/31 05:55:42;;;;;;;5.43;3.97;;;;;;;13.00;100.00;99649.59;5012561;28;20657;-64
2023/08/31 05:58:07;;;;;;;5.20;4.30;;;;;;;13.17;100.00;99652.72;5011740;28;20190;-65
2023/08/31 06:00:33;;;;;;;5.10;3.77;;;;;;;13.14;100.00;99652.94;5006651;28;20298;-64
2023/08/31 06:02:58;;;;;;;7.03;3.83;;;;;;;13.35;100.00;99651.38;5024091;28;20178;-65
2023/08/31 06:05:23;;;;;;;6.13;3.90;;;;;;;13.50;100.00;99654.63;5012438;28;20193;-65
2023/08/31 06:07:48;;;;;;;4.50;4.00;;;;;;;13.56;100.00;99650.75;5012175;28;20207;-66
2023/08/31 06:10:14;;;;;;;5.57;3.50;;;;;;;13.52;100.00;99655.34;5004374;28;20175;-65
2023/08/31 06:12:40;;;;;;;4.20;3.13;;;;;;;13.75;100.00;99645.03;5031005;28;20209;-64
2023/08/31 06:15:06;;;;;;;7.77;3.20;;;;;;;13.80;100.00;99655.03;5030712;28;20182;-65
2023/08/31 06:17:31;;;;;;;4.33;3.27;;;;;;;13.95;100.00;99653.06;5031019;28;20210;-65
2023/08/31 06:19:56;;;;;;;5.30;3.17;;;;;;;13.95;100.00;99653.06;5032180;28;20178;-66
2023/08/31 06:22:24;;;;;;;5.20;2.80;;;;;;;14.04;100.00;99648.00;5036220;28;20244;-66
2023/08/31 06:24:51;;;;;;;4.03;2.33;;;;;;;14.25;100.00;99651.66;5030476;28;20182;-65
2023/08/31 06:27:17;;;;;;;6.90;2.90;;;;;;;14.34;100.00;99654.34;5030986;28;20614;-66
2023/08/31 06:29:43;;;;;;;5.70;2.93;;;;;;;14.43;100.00;99650.22;5045280;28;20170;-64
2023/08/31 06:32:08;;;;;;;5.50;2.57;;;;;;;14.35;100.00;99658.59;5020096;28;20810;-65
2023/08/31 06:34:33;;;;;;;4.40;2.47;;;;;;;14.44;100.00;99659.63;5010051;28;20186;-64
2023/08/31 06:36:58;;;;;;;5.03;2.57;;;;;;;14.59;100.00;99664.56;5027095;28;20241;-66
2023/08/31 06:39:24;;;;;;;6.83;2.50;;;;;;;14.49;100.00;99667.03;5007324;28;20183;-63
2023/08/31 06:41:50;;;;;;;5.53;2.63;;;;;;;14.22;100.00;99675.19;5029093;28;20224;-64
2023/08/31 06:44:16;;;;;;;6.60;2.43;;;;;;;14.51;100.00;99667.72;5033072;28;20200;-65
2023/08/31 06:46:42;;;;;;;5.63;3.17;;;;;;;14.88;100.00;99674.41;5031771;28;20223;-63
2023/08/31 06:49:07;;;;;;;5.47;2.40;;;;;;;15.45;100.00;99673.22;5031241;28;20613;-63
2023/08/31 06:51:33;;;;;;;4.03;2.43;;;;;;;15.70;100.00;99673.78;5019948;28;20226;-64
2023/08/31 06:54:07;;;;;;;3.57;2.30;;;;;;;15.86;100.00;99680.34;5015352;28;20685;-64
2023/08/31 06:56:34;;;;;;;4.03;2.20;;;;;;;16.17;100.00;99677.78;4998097;28;20192;-65
2023/08/31 06:58:59;;;;;;;3.27;2.27;;;;;;;16.26;100.00;99687.34;5007062;28;20207;-65
2023/08/31 07:01:24;;;;;;;3.73;2.00;;;;;;;16.72;100.00;99678.22;5009761;28;20221;-64
2023/08/31 07:03:50;;;;;;;3.73;2.27;;;;;;;16.82;100.00;99685.19;5035731;28;20182;-65
2023/08/31 07:06:15;;;;;;;4.43;2.77;;;;;;;16.67;100.00;99693.38;5030734;28;20186;-64
2023/08/31 07:08:41;;;;;;;3.13;2.23;;;;;;;16.43;100.00;99698.91;5030029;28;20184;-64
2023/08/31 07:11:07;;;;;;;6.27;2.77;;;;;;;16.50;100.00;99709.59;5020391;28;20240;-63
2023/08/31 07:13:32;;;;;;;5.47;2.20;;;;;;;16.23;100.00;99710.97;5018588;28;20183;-65
2023/08/31 07:15:57;;;;;;;4.30;2.40;;;;;;;16.61;100.00;99707.69;5010819;28;20261;-64
2023/08/31 07:18:23;;;;;;;4.63;2.43;;;;;;;16.57;100.00;99715.88;5011550;28;20183;-63
2023/08/31 07:20:48;;;;;;;3.87;2.30;;;;;;;17.33;100.00;99706.72;5006731;28;20588;-65
2023/08/31 07:23:13;;;;;;;2.93;1.90;;;;;;;17.97;100.00;99707.09;5009206;28;20186;-66
2023/08/31 07:25:39;;;;;;;7.37;3.00;;;;;;;18.51;100.00;99699.50;5009232;28;20186;-64
2023/08/31 07:28:04;;;;;;;3.17;2.00;;;;;;;19.38;100.00;99699.06;5023142;28;20174;-64
2023/08/31 07:30:30;;;;;;;6.03;2.20;;;;;;;20.36;100.00;99705.91;4980447;28;20234;-64
2023/08/31 07:32:55;;;;;;;6.53;2.53;;;;;;;20.56;100.00;99709.88;5022897;28;20610;-65
2023/08/31 07:35:21;;;;;;;6.87;2.30;;;;;;;21.62;99.40;99705.00;5009500;28;20579;-64
2023/08/31 07:37:46;;;;;;;3.93;1.87;;;;;;;23.25;88.29;99705.50;5011021;28;20214;-65
2023/08/31 07:40:12;;;;;;;4.03;1.98;;;;;;;24.34;77.34;99715.59;5001021;28;20717;-66
2023/08/31 07:42:37;;;;;;;4.97;2.15;;;;;;;25.93;67.49;99708.56;5025105;28;20183;-64
2023/08/31 07:45:04;;;;;;;5.10;1.70;;;;;;;26.71;58.56;99721.50;5009300;28;20252;-65
2023/08/31 07:47:30;;;;;;;8.50;2.47;;;;;;;25.89;58.37;99723.16;5011053;28;20167;-64
2023/08/31 07:49:55;;;;;;;4.45;2.00;;;;;;;26.90;51.27;99721.78;5010963;28;20202;-64
2023/08/31 07:52:21;;;;;;;3.72;2.15;;;;;;;25.91;56.49;99731.66;5016093;28;20221;-65
2023/08/31 07:54:46;;;;;;;6.03;1.80;;;;;;;24.23;70.33;99734.44;5010174;28;20253;-65
2023/08/31 07:57:11;;;;;;;5.82;2.38;;;;;;;24.28;74.01;99738.16;5011040;28;20189;-65
2023/08/31 07:59:39;;;;;;;4.70;2.25;;;;;;;22.95;80.13;99742.06;5009572;28;20206;-63
2023/08/31 08:02:04;;;;;;;5.05;1.90;;;;;;;23.08;78.29;99744.09;5015943;28;20574;-65
2023/08/31 08:04:30;;;;;;;4.60;2.15;;;;;;;22.58;85.07;99739.13;5010530;28;20187;-65
2023/08/31 08:06:55;;;;;;;8.80;2.20;;;;;;;22.68;84.85;99744.16;5011207;28;20623;-66
2023/08/31 08:09:20;;;;;;;4.90;2.15;;;;;;;22.21;87.58;99741.34;5011009;28;20182;-65
2023/08/31 08:11:45;;;;;;;5.22;2.30;;;;;;;21.71;94.25;99750.31;5013932;28;20237;-64
2023/08/31 08:14:11;;;;;;;7.03;2.00;;;;;;;21.58;96.20;99748.16;5016154;28;20179;-66
2023/08/31 08:16:36;;;;;;;3.70;1.85;;;;;;;22.32;93.73;99753.28;5012885;28;20652;-65
2023/08/31 08:19:02;;;;;;;5.50;2.42;;;;;;;22.27;84.84;99757.41;5013407;28;20182;-63
2023/08/31 08:21:27;;;;;;;7.40;1.95;;;;;;;20.95;93.42;99769.50;5015139;28;20721;-65
2023/08/31 08:23:52;;;;;;;5.23;2.03;;;;;;;20.02;100.00;99770.19;5019141;28;20228;-65
2023/08/31 08:26:18;;;;;;;5.00;2.07;;;;;;;19.71;100.00;99754.09;5013864;28;20194;-64
2023/08/31 08:28:43;;;;;;;4.53;1.70;;;;;;;19.64;100.00;99770.34;5014115;28;20218;-64
2023/08/31 08:31:08;;;;;;;5.07;2.13;;;;;;;19.33;100.00;99764.72;5012771;28;20291;-64
2023/08/31 08:33:33;;;;;;;4.27;2.20;;;;;;;19.23;100.00;99766.56;5021097;28;20293;-64
2023/08/31 08:35:59;;;;;;;4.70;2.13;;;;;;;18.97;100.00;99762.06;5013823;28;20255;-65
2023/08/31 08:38:25;;;;;;;4.50;2.30;;;;;;;18.79;100.00;99759.38;5014315;28;20186;-65
2023/08/31 08:40:51;;;;;;;4.47;2.33;;;;;;;18.70;100.00;99756.72;5010129;28;20661;-66
2023/08/31 08:43:26;;;;;;;7.53;2.50;;;;;;;18.45;100.00;99768.59;5034722;28;20273;-66
2023/08/31 08:45:54;;;;;;;6.43;2.20;;;;;;;18.53;100.00;99773.06;5048352;28;20170;-66
2023/08/31 08:48:20;;;;;;;5.13;2.40;;;;;;;18.82;100.00;99772.94;5032563;28;20174;-66
2023/08/31 08:50:46;;;;;;;4.20;2.27;;;;;;;18.45;100.00;99771.19;5015456;28;20226;-65
2023/08/31 08:53:13;;;;;;;4.57;2.50;;;;;;;18.11;100.00;99771.72;5019453;28;20264;-65
2023/08/31 08:55:40;;;;;;;5.63;2.20;;;;;;;17.95;100.00;99779.25;5009585;28;20237;-65
2023/08/31 08:58:05;;;;;;;5.57;2.50;;;;;;;17.78;100.00;99778.19;5013292;28;20234;-65
2023/08/31 09:00:31;;;;;;;6.83;2.73;;;;;;;17.90;100.00;99784.88;5010047;28;20241;-64
2023/08/31 09:02:58;;;;;;;6.83;2.10;;;;;;;17.95;100.00;99779.25;5011669;28;20179;-67
2023/08/31 09:05:24;;;;;;;5.10;2.27;;;;;;;18.24;100.00;99776.59;5013057;28;20197;-63
2023/08/31 09:08:16;;;;;;;4.03;2.30;;;;;;;17.89;100.00;99775.41;5002901;28;20183;-65
2023/08/31 09:10:43;;;;;;;4.07;2.50;;;;;;;18.04;100.00;99776.66;5001074;28;20364;-65
2023/08/31 09:13:13;;;;;;;10.07;2.60;;;;;;;18.65;100.00;99779.75;5004678;28;20218;-65
2023/08/31 09:15:41;;;;;;;3.87;1.67;;;;;;;19.46;100.00;99774.75;5009241;28;20172;-66
2023/08/31 09:18:07;;;;;;;4.20;2.07;;;;;;;19.46;100.00;99775.59;5011889;28;20179;-65
2023/08/31 09:20:43;;;;;;;6.83;2.30;;;;;;;20.12;100.00;99770.09;5007141;28;20230;-64
2023/08/31 09:23:12;;;;;;;6.50;1.93;;;;;;;20.96;98.31;99775.53;5022949;28;20194;-64
2023/08/31 09:25:45;;;;;;;3.10;2.17;;;;;;;23.01;87.74;99760.53;5008711;28;20197;-65
2023/08/31 09:28:12;;;;;;;4.00;1.77;;;;;;;24.56;72.21;99765.59;5027623;28;20527;-63
2023/08/31 09:30:37;;;;;;;5.43;2.25;;;;;;;24.49;67.69;99768.94;5007706;28;20230;-63
2023/08/31 09:33:12;;;;;;;4.22;1.85;;;;;;;23.96;75.04;99757.72;5010576;28;20546;-64
2023/08/31 09:35:50;;;;;;;5.00;1.90;;;;;;;25.05;65.57;99758.88;5012094;28;20205;-64
2023/08/31 09:38:16;;;;;;;3.95;1.83;;;;;;;26.19;56.90;99757.19;5018415;28;20277;-65
2023/08/31 09:40:41;;;;;;;5.63;1.60;;;;;;;27.34;48.79;99761.84;5003692;28;20304;-65
2023/08/31 09:43:07;;;;;;;4.57;1.42;;;;;;;25.60;53.83;99773.19;5014595;28;20634;-62
2023/08/31 09:45:34;;;;;;;3.30;1.70;;;;;;;25.32;57.34;99780.19;5011770;28;20193;-64
2023/08/31 09:48:01;;;;;;;2.92;1.67;;;;;;;26.97;48.98;99761.38;5003443;28;20190;-65
2023/08/31 09:50:31;;;;;;;3.30;2.03;;;;;;;26.81;47.29;99762.56;5005740;28;20225;-64
2023/08/31 09:53:01;;;;;;;3.58;1.50;;;;;;;26.25;49.48;99765.13;5006630;28;20211;-64
2023/08/31 09:55:29;;;;;;;4.95;1.77;;;;;;;26.07;50.88;99765.66;5004408;28;20631;-63
2023/08/31 09:57:57;;;;;;;3.92;1.85;;;;;;;25.44;49.59;99774.28;5012534;28;20189;-64
2023/08/31 10:00:23;;;;;;;4.38;2.08;;;;;;;23.96;63.63;99770.84;5005726;28;20226;-64
2023/08/31 10:02:49;;;;;;;3.95;1.80;;;;;;;22.81;72.13;99772.44;5011466;28;20236;-65
2023/08/31 10:05:15;;;;;;;6.45;1.58;;;;;;;22.65;71.84;99768.09;5026747;28;20191;-65
2023/08/31 10:07:42;;;;;;;3.45;2.13;;;;;;;23.48;74.22;99756.16;5012490;28;20185;-64
2023/08/31 10:10:08;;;;;;;2.80;1.80;;;;;;;25.20;54.54;99756.19;5003564;28;20186;-64
2023/08/31 10:12:35;;;;;;;3.75;1.45;;;;;;;27.67;45.56;99759.25;5009551;28;20313;-65
2023/08/31 10:15:01;;;;;;;4.07;1.60;;;;;;;29.19;40.66;99765.22;5006357;28;20206;-66
2023/08/31 10:17:27;;;;;;;3.20;1.80;;;;;;;30.16;37.32;99763.19;5011433;28;20265;-65
2023/08/31 10:19:53;;;;;;;3.88;1.95;;;;;;;29.55;37.34;99770.88;5010501;28;20258;-64
2023/08/31 10:22:19;;;;;;;4.00;1.88;;;;;;;27.79;40.37;99771.81;4998206;28;20234;-66
2023/08/31 10:24:58;;;;;;;3.95;1.67;;;;;;;26.82;43.26;99767.63;5011459;28;20202;-66
2023/08/31 10:27:24;;;;;;;4.10;2.17;;;;;;;26.46;46.23;99765.22;5021962;28;20562;-65
2023/08/31 10:29:49;;;;;;;7.03;1.83;;;;;;;26.36;46.51;99763.78;5010565;28;20206;-66
2023/08/31 10:32:19;;;;;;;2.67;1.70;;;;;;;26.16;46.50;99758.41;5010672;28;20237;-65
2023/08/31 10:35:03;;;;;;;3.85;1.85;;;;;;;25.58;47.65;99763.88;5009410;28;20183;-66
2023/08/31 10:37:29;;;;;;;3.10;1.63;;;;;;;24.89;52.79;99767.84;5009435;28;20175;-65
2023/08/31 10:40:07;;;;;;;3.70;1.77;;;;;;;24.34;54.58;99765.53;5026970;28;20293;-65
2023/08/31 10:42:32;;;;;;;2.45;1.65;;;;;;;23.80;58.69;99769.16;5019821;28;20210;-64
2023/08/31 10:45:06;;;;;;;3.83;1.60;;;;;;;22.72;67.01;99758.56;5028066;28;20186;-66
2023/08/31 10:47:41;;;;;;;5.20;1.90;;;;;;;22.71;67.92;99763.00;5029483;28;20182;-64
2023/08/31 10:50:21;;;;;;;4.28;1.60;;;;;;;22.22;65.84;99763.94;5014854;28;20621;-65
2023/08/31 10:52:46;;;;;;;4.80;1.67;;;;;;;21.99;68.85;99757.78;5024188;28;20206;-65
2023/08/31 10:55:12;;;;;;;2.78;1.67;;;;;;;21.74;76.07;99757.81;5010206;28;20217;-63
2023/08/31 10:57:39;;;;;;;4.20;1.73;;;;;;;21.87;72.94;99752.09;5008501;28;20624;-65
2023/08/31 11:00:05;;;;;;;2.77;1.43;;;;;;;22.15;73.10;99744.66;4994869;28;20216;-66
2023/08/31 11:02:43;;;;;;;1.97;1.33;;;;;;;22.01;70.07;99748.78;5046155;28;20716;-65
2023/08/31 11:05:10;;;;;;;2.13;1.70;;;;;;;21.68;76.65;99745.38;5030816;28;20544;-64
2023/08/31 11:07:36;;;;;;;4.90;1.70;;;;;;;22.00;76.56;99749.75;5030924;28;20205;-65
2023/08/31 11:10:16;;;;;;;2.70;1.60;;;;;;;22.06;71.27;99737.81;5046681;28;20188;-63
2023/08/31 11:12:44;;;;;;;6.23;1.80;;;;;;;22.56;67.53;99728.00;4987800;28;20233;-65
2023/08/31 11:15:12;;;;;;;2.93;1.83;;;;;;;22.69;73.76;99736.13;5025451;28;20222;-66
2023/08/31 11:17:40;;;;;;;2.97;1.70;;;;;;;23.00;66.06;99743.16;5026307;28;20183;-65
2023/08/31 11:20:05;;;;;;;3.57;1.90;;;;;;;22.71;56.99;99747.28;5000115;28;20186;-65
2023/08/31 11:22:31;;;;;;;2.50;1.40;;;;;;;22.81;65.83;99746.22;5009663;28;20230;-66
2023/08/31 11:24:57;;;;;;;3.83;1.90;;;;;;;23.15;59.62;99740.59;5009571;28;20194;-66